Time;durP1;ratioP1;P1;durP2;ratioP2;P2;SDS_P1;SDS_P2;PMS_P1;PMS_P2;Temp;Humidity;BMP_temperature;BMP_pressure;BME280_temperature;BME280_humidity;BME280_pressure;Samples;Min_cycle;Max_cycle;Signal;HPM_P1;HPM_P2
2023/12/01 00:02:17;;;;;;;17.67;10.15;;;1.90;99.90;;;;;;4993684;28;20030;-78
2023/12/01 00:04:43;;;;;;;21.63;11.48;;;1.90;99.90;;;;;;4992014;28;20061;-78
2023/12/01 00:07:08;;;;;;;24.75;12.35;;;1.90;99.90;;;;;;4993140;28;20033;-78
2023/12/01 00:09:34;;;;;;;23.40;12.07;;;1.80;99.90;;;;;;4993379;28;20080;-78
2023/12/01 00:11:59;;;;;;;22.10;12.18;;;1.90;99.90;;;;;;4993579;28;20143;-79
2023/12/01 00:14:25;;;;;;;20.00;11.23;;;1.90;99.90;;;;;;4993182;28;20374;-78
2023/12/01 00:16:50;;;;;;;21.65;11.93;;;1.90;99.90;;;;;;4975420;28;20527;-77
2023/12/01 00:19:16;;;;;;;23.20;11.57;;;1.90;99.90;;;;;;4992839;28;20029;-77
2023/12/01 00:21:42;;;;;;;23.02;11.77;;;1.90;99.90;;;;;;4975781;28;20038;-77
2023/12/01 00:24:07;;;;;;;23.70;10.57;;;1.90;99.90;;;;;;4993094;28;20014;-77
2023/12/01 00:26:33;;;;;;;23.10;11.43;;;1.90;99.90;;;;;;4993091;28;20030;-77
2023/12/01 00:28:59;;;;;;;18.52;10.60;;;2.00;99.90;;;;;;4975722;28;20053;-78
2023/12/01 00:31:24;;;;;;;19.50;10.60;;;2.00;99.90;;;;;;4993082;28;20054;-77
2023/12/01 00:33:51;;;;;;;20.33;10.68;;;1.80;99.90;;;;;;4975836;28;20050;-77
2023/12/01 00:36:17;;;;;;;23.05;10.95;;;2.00;99.90;;;;;;4993873;28;20436;-79
2023/12/01 00:38:43;;;;;;;18.40;9.57;;;2.00;99.90;;;;;;4975995;28;20026;-77
2023/12/01 00:41:08;;;;;;;18.00;10.52;;;2.00;99.90;;;;;;4975728;28;20031;-78
2023/12/01 00:43:34;;;;;;;21.38;11.18;;;2.00;99.90;;;;;;4993234;28;20073;-78
2023/12/01 00:45:59;;;;;;;17.20;9.50;;;1.90;99.90;;;;;;4975488;28;20026;-77
2023/12/01 00:48:25;;;;;;;20.92;11.55;;;1.90;99.90;;;;;;4993394;28;20582;-78
2023/12/01 00:50:52;;;;;;;23.13;10.60;;;1.40;99.90;;;;;;4975851;28;20031;-79
2023/12/01 00:53:18;;;;;;;19.50;10.27;;;2.00;99.90;;;;;;4993286;28;20026;-79
2023/12/01 00:55:44;;;;;;;22.45;10.25;;;2.00;99.90;;;;;;4992925;28;20026;-78
2023/12/01 00:58:09;;;;;;;23.77;11.48;;;2.00;99.90;;;;;;4992977;28;20049;-78
2023/12/01 01:00:35;;;;;;;22.70;10.98;;;2.00;99.90;;;;;;4975491;28;20026;-78
2023/12/01 01:03:01;;;;;;;24.45;12.45;;;2.00;99.90;;;;;;4992849;28;20022;-78
2023/12/01 01:05:26;;;;;;;21.17;10.27;;;2.10;99.90;;;;;;4992679;28;20428;-78
2023/12/01 01:07:53;;;;;;;21.20;11.25;;;2.10;99.90;;;;;;4992732;28;20392;-80
2023/12/01 01:10:19;;;;;;;21.65;11.63;;;1.80;99.90;;;;;;4993125;28;20030;-78
2023/12/01 01:12:44;;;;;;;19.30;10.60;;;2.10;99.90;;;;;;4992985;28;20026;-78
2023/12/01 01:15:10;;;;;;;18.00;11.07;;;2.10;99.90;;;;;;4975491;28;20026;-77
2023/12/01 01:17:36;;;;;;;20.88;10.63;;;2.10;99.90;;;;;;4975161;28;20122;-78
2023/12/01 01:20:02;;;;;;;19.45;10.38;;;2.10;99.90;;;;;;4992929;28;20555;-78
2023/12/01 01:22:28;;;;;;;21.52;10.93;;;2.10;99.90;;;;;;4991484;28;20022;-78
2023/12/01 01:24:53;;;;;;;22.40;10.93;;;2.10;99.90;;;;;;4975213;28;20462;-77
2023/12/01 01:27:19;;;;;;;18.88;10.45;;;2.10;99.90;;;;;;4991117;28;20081;-77
2023/12/01 01:29:45;;;;;;;17.90;9.88;;;2.00;99.90;;;;;;4992681;28;20473;-77
2023/12/01 01:32:11;;;;;;;25.35;11.07;;;2.00;99.90;;;;;;4977376;28;20048;-78
2023/12/01 01:34:38;;;;;;;17.42;10.77;;;2.00;99.90;;;;;;4996162;28;20080;-78
2023/12/01 01:37:04;;;;;;;20.55;10.07;;;2.00;99.90;;;;;;4979805;28;20034;-80
2023/12/01 01:39:29;;;;;;;23.45;11.98;;;2.00;99.90;;;;;;4997031;28;20109;-78
2023/12/01 01:41:56;;;;;;;21.08;10.45;;;2.00;99.90;;;;;;4996425;28;20107;-78
2023/12/01 01:44:22;;;;;;;19.90;10.88;;;1.90;99.90;;;;;;4996539;28;20031;-77
2023/12/01 01:46:50;;;;;;;24.73;12.00;;;1.90;99.90;;;;;;4996106;28;20026;-78
2023/12/01 01:49:16;;;;;;;24.13;12.15;;;1.90;99.90;;;;;;4994866;28;20030;-79
2023/12/01 01:51:42;;;;;;;25.02;11.75;;;1.80;99.90;;;;;;4996853;28;20042;-79
2023/12/01 01:54:08;;;;;;;23.60;11.63;;;1.70;99.90;;;;;;4978919;28;20088;-79
2023/12/01 01:56:34;;;;;;;24.05;10.55;;;1.70;99.90;;;;;;4996896;28;20081;-78
2023/12/01 01:59:00;;;;;;;26.70;11.60;;;1.70;99.90;;;;;;4979283;28;20117;-78
2023/12/01 02:01:25;;;;;;;26.52;12.02;;;1.70;99.90;;;;;;4979590;28;20121;-78
2023/12/01 02:03:53;;;;;;;28.33;11.15;;;1.70;99.90;;;;;;4978865;28;20161;-78
2023/12/01 02:06:19;;;;;;;28.08;11.40;;;1.70;99.90;;;;;;4979121;28;20022;-78
2023/12/01 02:08:45;;;;;;;29.42;11.50;;;1.70;99.90;;;;;;4979452;28;20077;-77
2023/12/01 02:11:13;;;;;;;25.02;11.18;;;1.70;99.90;;;;;;4996972;28;20069;-78
2023/12/01 02:13:39;;;;;;;29.33;12.93;;;1.70;99.90;;;;;;4996770;28;20029;-78
2023/12/01 02:16:07;;;;;;;25.30;12.20;;;1.70;99.90;;;;;;4995115;28;20611;-78
2023/12/01 02:18:35;;;;;;;26.58;12.55;;;1.70;99.90;;;;;;4996395;28;20041;-78
2023/12/01 02:21:01;;;;;;;31.65;12.38;;;1.70;99.90;;;;;;4978569;28;20026;-78
2023/12/01 02:23:27;;;;;;;32.75;12.63;;;1.70;99.90;;;;;;4996462;28;20026;-79
2023/12/01 02:25:53;;;;;;;32.08;12.15;;;1.70;99.90;;;;;;4996649;28;20031;-78
2023/12/01 02:28:19;;;;;;;40.17;13.95;;;1.80;99.90;;;;;;4996489;28;20488;-78
2023/12/01 02:30:53;;;;;;;33.55;12.35;;;1.80;99.90;;;;;;4979339;28;20023;-78
2023/12/01 02:33:20;;;;;;;27.35;11.52;;;1.80;99.90;;;;;;4979018;28;20022;-78
2023/12/01 02:35:51;;;;;;;33.50;13.25;;;1.90;99.90;;;;;;4994537;28;20041;-78
2023/12/01 02:38:17;;;;;;;24.10;11.25;;;1.80;99.90;;;;;;4979105;28;20432;-78
2023/12/01 02:40:49;;;;;;;20.25;10.90;;;1.80;99.90;;;;;;4979100;28;20080;-78
2023/12/01 02:43:15;;;;;;;23.05;10.65;;;1.80;99.90;;;;;;4994698;28;20089;-78
2023/12/01 02:45:40;;;;;;;27.23;11.48;;;1.80;99.90;;;;;;4977891;28;20423;-76
2023/12/01 02:48:06;;;;;;;25.15;12.60;;;1.80;99.90;;;;;;4996118;28;20105;-79
2023/12/01 02:50:33;;;;;;;23.88;10.68;;;1.80;99.90;;;;;;4978431;28;20034;-79
2023/12/01 02:53:00;;;;;;;29.67;10.38;;;1.70;99.90;;;;;;4995380;28;20022;-78
2023/12/01 02:55:26;;;;;;;27.20;11.73;;;1.80;99.90;;;;;;4995016;28;20109;-78
2023/12/01 02:57:53;;;;;;;28.17;12.93;;;1.80;99.90;;;;;;4995223;28;20127;-78
2023/12/01 03:00:19;;;;;;;30.98;12.65;;;1.80;99.90;;;;;;4978185;28;20027;-79
2023/12/01 03:02:46;;;;;;;30.70;12.07;;;1.70;99.90;;;;;;4995194;28;20033;-78
2023/12/01 03:05:11;;;;;;;36.47;13.98;;;1.80;99.90;;;;;;4996290;28;20022;-77
2023/12/01 03:07:39;;;;;;;39.53;14.55;;;1.80;99.90;;;;;;4977887;28;20034;-78
2023/12/01 03:10:09;;;;;;;35.33;14.05;;;1.80;99.90;;;;;;4977788;28;20018;-78
2023/12/01 03:12:38;;;;;;;29.02;12.32;;;1.80;99.90;;;;;;4994785;28;20129;-79
2023/12/01 03:15:05;;;;;;;32.03;13.57;;;1.70;99.90;;;;;;4995651;28;20018;-79
2023/12/01 03:17:31;;;;;;;32.67;13.52;;;1.70;99.90;;;;;;4995643;28;20030;-78
2023/12/01 03:19:58;;;;;;;29.35;12.70;;;1.70;99.90;;;;;;4978188;28;20040;-78
2023/12/01 03:22:23;;;;;;;25.75;12.20;;;1.70;99.90;;;;;;4995458;28;20034;-78
2023/12/01 03:24:50;;;;;;;28.63;12.98;;;1.70;99.90;;;;;;4995428;28;20077;-79
2023/12/01 03:27:16;;;;;;;26.92;12.95;;;1.70;99.90;;;;;;4995370;28;20033;-79
2023/12/01 03:29:41;;;;;;;25.48;12.93;;;1.60;99.90;;;;;;4995531;28;20089;-78
2023/12/01 03:32:07;;;;;;;31.88;12.60;;;1.60;99.90;;;;;;4993852;28;20026;-78
2023/12/01 03:34:33;;;;;;;29.13;13.43;;;1.70;99.90;;;;;;4977333;28;20422;-78
2023/12/01 03:36:59;;;;;;;27.08;12.07;;;1.60;99.90;;;;;;4976748;28;20030;-78
2023/12/01 03:39:25;;;;;;;30.58;12.65;;;1.60;99.90;;;;;;4993472;28;20038;-78
2023/12/01 03:41:51;;;;;;;33.90;13.02;;;1.60;99.90;;;;;;4993413;28;20027;-78
2023/12/01 03:44:17;;;;;;;27.42;11.88;;;1.60;99.90;;;;;;4994939;28;20026;-78
2023/12/01 03:46:43;;;;;;;27.35;11.25;;;1.80;99.90;;;;;;4994061;28;20080;-78
2023/12/01 03:49:09;;;;;;;24.67;12.27;;;1.80;99.90;;;;;;4994475;28;20027;-78
2023/12/01 03:51:36;;;;;;;24.33;12.18;;;1.90;99.90;;;;;;4994508;28;20096;-78
2023/12/01 03:54:01;;;;;;;27.85;10.98;;;1.80;99.90;;;;;;4976816;28;20492;-77
2023/12/01 03:56:27;;;;;;;33.38;12.57;;;1.80;99.90;;;;;;4994136;28;20113;-80
2023/12/01 03:58:55;;;;;;;23.10;10.00;;;1.80;99.90;;;;;;4994458;28;20034;-78
2023/12/01 04:01:21;;;;;;;30.52;12.60;;;1.80;99.90;;;;;;4976895;28;20026;-78
2023/12/01 04:03:46;;;;;;;26.95;11.52;;;1.70;99.90;;;;;;4976817;28;20404;-78
2023/12/01 04:06:12;;;;;;;26.38;13.38;;;1.30;99.90;;;;;;4994113;28;20027;-78
2023/12/01 04:08:38;;;;;;;24.58;11.43;;;1.70;99.90;;;;;;4976765;28;20027;-79
2023/12/01 04:11:04;;;;;;;27.70;12.55;;;1.70;99.90;;;;;;4993406;28;20468;-80
2023/12/01 04:13:30;;;;;;;23.58;11.05;;;1.70;99.90;;;;;;4993148;28;20049;-78
2023/12/01 04:15:55;;;;;;;27.25;12.40;;;1.70;99.90;;;;;;4992807;28;20026;-79
2023/12/01 04:18:21;;;;;;;26.40;11.85;;;1.60;99.90;;;;;;4994176;28;20033;-78
2023/12/01 04:20:47;;;;;;;24.45;11.88;;;1.60;99.90;;;;;;4977114;28;20022;-77
2023/12/01 04:23:14;;;;;;;27.30;12.23;;;1.60;99.90;;;;;;4993897;28;20022;-78
2023/12/01 04:25:46;;;;;;;24.35;11.50;;;1.60;99.90;;;;;;4993782;28;20018;-78
2023/12/01 04:28:13;;;;;;;23.02;12.35;;;1.60;99.90;;;;;;4993876;28;20057;-78
2023/12/01 04:30:40;;;;;;;25.40;11.45;;;1.60;99.90;;;;;;4993910;28;20073;-77
2023/12/01 04:33:06;;;;;;;21.73;10.07;;;1.60;99.90;;;;;;4994032;28;20097;-78
2023/12/01 04:35:34;;;;;;;27.92;12.73;;;1.80;99.90;;;;;;4993668;28;20451;-78
2023/12/01 04:38:05;;;;;;;27.20;11.20;;;1.60;99.90;;;;;;4993719;28;20065;-79
2023/12/01 04:40:31;;;;;;;28.50;11.40;;;1.60;99.90;;;;;;4994048;28;20034;-77
2023/12/01 04:42:59;;;;;;;29.35;13.52;;;1.60;99.90;;;;;;4994416;28;20026;-78
2023/12/01 04:45:27;;;;;;;26.50;11.65;;;1.60;99.90;;;;;;4994124;28;20059;-78
2023/12/01 04:47:54;;;;;;;22.38;10.98;;;1.60;99.90;;;;;;4977074;28;20065;-78
2023/12/01 04:50:30;;;;;;;30.05;10.65;;;1.60;99.90;;;;;;4994247;28;20120;-77
2023/12/01 04:52:58;;;;;;;23.58;11.63;;;1.60;99.90;;;;;;4992482;28;20034;-78
2023/12/01 04:55:25;;;;;;;23.77;11.27;;;1.70;99.90;;;;;;4993469;28;20086;-77
2023/12/01 04:57:50;;;;;;;19.00;9.80;;;1.70;99.90;;;;;;4992407;28;20022;-78
2023/12/01 05:00:21;;;;;;;27.08;12.25;;;1.70;99.90;;;;;;4994172;28;20029;-78
2023/12/01 05:02:53;;;;;;;27.73;11.05;;;1.60;99.90;;;;;;4993812;28;20109;-76
2023/12/01 05:05:22;;;;;;;25.88;11.75;;;1.60;99.90;;;;;;4992658;28;20042;-76
2023/12/01 05:07:51;;;;;;;23.63;12.07;;;1.70;99.90;;;;;;4995971;28;20042;-76
2023/12/01 05:10:18;;;;;;;24.17;11.48;;;1.60;99.90;;;;;;4996494;28;20025;-76
2023/12/01 05:12:45;;;;;;;25.73;11.50;;;1.60;99.90;;;;;;4996376;28;20030;-76
2023/12/01 05:15:15;;;;;;;31.13;12.38;;;1.60;99.90;;;;;;4996590;28;20033;-76
2023/12/01 05:18:02;;;;;;;25.33;11.05;;;1.60;99.90;;;;;;4996370;28;20030;-76
2023/12/01 05:20:28;;;;;;;25.52;12.13;;;1.60;99.90;;;;;;4996466;28;20023;-76
2023/12/01 05:22:56;;;;;;;23.92;11.73;;;1.60;99.90;;;;;;4996469;28;20027;-76
2023/12/01 05:25:25;;;;;;;28.02;11.57;;;1.60;99.90;;;;;;4996729;28;20029;-76
2023/12/01 05:27:55;;;;;;;22.67;12.10;;;1.50;99.90;;;;;;4978679;28;20033;-76
2023/12/01 05:30:29;;;;;;;23.23;11.65;;;1.50;99.90;;;;;;4996485;28;20026;-76
2023/12/01 05:32:56;;;;;;;25.70;11.75;;;1.50;99.90;;;;;;4996426;28;20469;-76
2023/12/01 05:35:22;;;;;;;21.48;10.55;;;1.50;99.90;;;;;;4978452;28;20033;-76
2023/12/01 05:37:52;;;;;;;24.45;10.48;;;1.50;99.90;;;;;;4995985;28;20388;-76
2023/12/01 05:40:25;;;;;;;22.00;10.05;;;1.50;99.90;;;;;;4994432;28;20026;-76
2023/12/01 05:42:55;;;;;;;20.17;9.75;;;1.60;99.90;;;;;;4979877;28;20025;-77
2023/12/01 05:45:22;;;;;;;22.05;10.90;;;1.60;99.90;;;;;;4998177;28;20023;-77
2023/12/01 05:47:50;;;;;;;18.63;9.13;;;1.50;99.90;;;;;;4997043;28;20030;-76
2023/12/01 05:50:16;;;;;;;22.30;11.60;;;0.40;99.90;;;;;;4978365;28;20026;-76
2023/12/01 05:52:45;;;;;;;20.70;9.07;;;1.50;99.90;;;;;;4978163;28;20023;-76
2023/12/01 05:55:22;;;;;;;20.95;9.85;;;1.50;99.90;;;;;;4977887;28;20023;-76
2023/12/01 05:57:52;;;;;;;20.67;9.38;;;1.60;99.90;;;;;;4995602;28;20408;-76
2023/12/01 06:00:22;;;;;;;21.48;9.48;;;1.60;99.90;;;;;;4995320;28;20484;-79
2023/12/01 06:02:50;;;;;;;18.80;9.75;;;1.60;99.90;;;;;;4994999;28;20408;-76
2023/12/01 06:05:17;;;;;;;19.98;11.80;;;1.60;99.90;;;;;;4995284;28;20023;-76
2023/12/01 06:07:49;;;;;;;19.73;10.02;;;1.60;99.90;;;;;;4977487;28;20109;-76
2023/12/01 06:10:17;;;;;;;17.00;9.10;;;1.60;99.90;;;;;;4977997;28;20033;-75
2023/12/01 06:12:42;;;;;;;23.08;13.45;;;1.60;99.90;;;;;;4977615;28;20492;-76
2023/12/01 06:15:10;;;;;;;20.08;10.55;;;1.60;99.90;;;;;;4994110;28;20076;-76
2023/12/01 06:17:36;;;;;;;13.68;8.15;;;1.70;99.90;;;;;;4994570;28;20064;-76
2023/12/01 06:20:03;;;;;;;16.52;8.02;;;1.70;99.90;;;;;;4994802;28;20026;-76
2023/12/01 06:22:29;;;;;;;26.52;12.85;;;2.40;99.90;;;;;;4977371;28;20030;-76
2023/12/01 06:24:54;;;;;;;19.52;10.55;;;2.10;99.90;;;;;;4995026;28;20388;-76
2023/12/01 06:27:20;;;;;;;11.50;7.22;;;1.90;99.90;;;;;;4994735;28;20097;-76
2023/12/01 06:29:45;;;;;;;34.80;17.05;;;1.80;99.90;;;;;;4995587;28;20520;-76
2023/12/01 06:32:13;;;;;;;28.58;15.75;;;1.70;99.90;;;;;;4999169;28;20037;-77
2023/12/01 06:34:38;;;;;;;21.75;13.25;;;1.70;99.90;;;;;;4998059;28;20023;-76
2023/12/01 06:37:04;;;;;;;19.20;11.65;;;1.70;99.90;;;;;;4994971;28;20084;-76
2023/12/01 06:39:30;;;;;;;16.65;8.82;;;1.70;99.90;;;;;;4977289;28;20484;-76
2023/12/01 06:41:55;;;;;;;23.52;14.68;;;1.70;99.90;;;;;;4977008;28;20376;-76
2023/12/01 06:44:21;;;;;;;16.45;10.52;;;1.20;99.90;;;;;;4977528;28;20034;-76
2023/12/01 06:46:46;;;;;;;24.05;15.50;;;1.60;99.90;;;;;;4977329;28;20022;-77
2023/12/01 06:49:12;;;;;;;15.30;8.90;;;1.70;99.90;;;;;;4994822;28;20026;-76
2023/12/01 06:51:39;;;;;;;15.80;9.57;;;1.80;99.90;;;;;;4994996;28;20036;-76
2023/12/01 06:54:04;;;;;;;12.55;7.20;;;1.70;99.90;;;;;;4994942;28;20101;-77
2023/12/01 06:56:30;;;;;;;11.77;6.70;;;1.60;99.90;;;;;;4994470;28;20073;-76
2023/12/01 06:58:56;;;;;;;25.30;13.32;;;1.60;99.90;;;;;;4976998;28;20034;-76
2023/12/01 07:01:21;;;;;;;12.85;7.53;;;1.70;99.90;;;;;;4994815;28;20031;-77
2023/12/01 07:03:48;;;;;;;13.27;7.43;;;1.60;99.90;;;;;;4994687;28;20057;-76
2023/12/01 07:06:14;;;;;;;15.80;8.45;;;1.60;99.90;;;;;;4977107;28;20018;-77
2023/12/01 07:08:40;;;;;;;11.43;6.07;;;1.60;99.90;;;;;;4994752;28;20505;-77
2023/12/01 07:11:09;;;;;;;10.95;7.03;;;1.60;99.90;;;;;;4995059;28;20030;-77
2023/12/01 07:13:34;;;;;;;12.32;6.63;;;1.60;99.90;;;;;;4994390;28;20046;-77
2023/12/01 07:16:09;;;;;;;17.60;9.85;;;1.60;99.90;;;;;;4994074;28;20030;-78
2023/12/01 07:18:36;;;;;;;11.83;7.90;;;1.70;99.90;;;;;;4994347;28;20022;-77
2023/12/01 07:21:06;;;;;;;11.27;6.50;;;1.70;99.90;;;;;;4976750;28;20338;-77
2023/12/01 07:23:32;;;;;;;15.02;8.05;;;1.70;99.90;;;;;;4977214;28;20027;-77
2023/12/01 07:25:58;;;;;;;10.77;6.72;;;1.70;99.90;;;;;;4994260;28;20049;-77
2023/12/01 07:28:24;;;;;;;9.73;6.40;;;1.70;99.90;;;;;;4976719;28;20060;-77
2023/12/01 07:30:50;;;;;;;9.75;6.03;;;1.60;99.90;;;;;;4994118;28;20028;-77
2023/12/01 07:33:16;;;;;;;10.95;6.75;;;1.80;99.90;;;;;;4976988;28;20120;-77
2023/12/01 07:35:43;;;;;;;8.32;5.82;;;1.80;99.90;;;;;;4992506;28;20030;-77
2023/12/01 07:38:09;;;;;;;8.85;5.72;;;1.80;99.90;;;;;;4967410;28;20031;-76
2023/12/01 07:40:35;;;;;;;10.45;5.88;;;1.80;99.90;;;;;;4981629;28;20097;-77
2023/12/01 07:43:02;;;;;;;9.73;5.82;;;1.90;99.90;;;;;;4974152;28;20026;-76
2023/12/01 07:45:28;;;;;;;12.07;6.45;;;1.90;99.90;;;;;;4973159;28;20370;-76
2023/12/01 07:47:54;;;;;;;9.15;5.93;;;2.00;99.90;;;;;;4974100;28;20015;-77
2023/12/01 07:50:21;;;;;;;8.18;5.45;;;2.00;99.90;;;;;;4956718;28;20026;-76
2023/12/01 07:52:48;;;;;;;9.25;4.90;;;1.90;99.90;;;;;;4956251;28;20436;-75
2023/12/01 07:55:15;;;;;;;8.23;4.63;;;1.80;99.90;;;;;;4979651;28;20031;-75
2023/12/01 07:57:41;;;;;;;11.40;6.03;;;1.80;99.90;;;;;;4992707;28;20027;-76
2023/12/01 08:00:14;;;;;;;9.80;5.65;;;1.80;99.90;;;;;;4993032;28;20036;-75
2023/12/01 08:02:44;;;;;;;10.45;5.68;;;1.90;99.90;;;;;;4993302;28;20034;-75
2023/12/01 08:05:13;;;;;;;6.18;3.92;;;1.90;99.90;;;;;;4992983;28;20022;-75
2023/12/01 08:07:52;;;;;;;7.53;5.43;;;1.90;99.90;;;;;;4992704;28;20023;-75
2023/12/01 08:10:22;;;;;;;8.63;5.25;;;1.90;99.90;;;;;;4975539;28;20049;-76
2023/12/01 08:12:49;;;;;;;8.82;6.00;;;1.90;99.90;;;;;;4992923;28;20025;-76
2023/12/01 08:15:16;;;;;;;9.45;5.80;;;1.90;99.90;;;;;;4975227;28;20022;-74
2023/12/01 08:17:43;;;;;;;12.23;7.15;;;2.00;99.90;;;;;;4992207;28;20109;-75
2023/12/01 08:20:10;;;;;;;13.57;4.45;;;1.90;99.90;;;;;;4992529;28;20106;-74
2023/12/01 08:22:37;;;;;;;39.20;17.30;;;2.70;99.90;;;;;;4975058;28;20475;-75
2023/12/01 08:25:07;;;;;;;15.57;10.45;;;4.30;99.90;;;;;;4992991;28;20030;-76
2023/12/01 08:27:33;;;;;;;13.20;8.43;;;3.80;99.90;;;;;;4992805;28;20106;-75
2023/12/01 08:29:58;;;;;;;12.27;6.70;;;3.40;99.90;;;;;;4975280;28;20053;-76
2023/12/01 08:32:24;;;;;;;10.32;6.18;;;2.90;99.90;;;;;;4992752;28;20113;-77
2023/12/01 08:34:54;;;;;;;14.98;8.10;;;2.60;99.90;;;;;;4975198;28;20404;-75
2023/12/01 08:37:20;;;;;;;12.70;7.25;;;2.90;99.90;;;;;;4992160;28;20477;-76
2023/12/01 08:39:46;;;;;;;16.13;7.78;;;4.90;99.90;;;;;;4992544;28;20031;-75
2023/12/01 08:42:11;;;;;;;11.32;7.28;;;4.60;99.90;;;;;;4996605;28;20098;-74
2023/12/01 08:44:37;;;;;;;12.10;6.97;;;3.90;99.90;;;;;;4996903;28;20488;-76
2023/12/01 08:47:03;;;;;;;11.57;7.75;;;3.60;99.90;;;;;;4997079;28;20031;-77
2023/12/01 08:49:29;;;;;;;11.77;6.78;;;3.20;99.90;;;;;;4996809;28;20026;-76
2023/12/01 08:51:55;;;;;;;9.98;6.57;;;3.00;99.90;;;;;;4979222;28;20030;-78
2023/12/01 08:54:24;;;;;;;8.73;5.10;;;2.80;99.90;;;;;;4996523;28;20029;-76
2023/12/01 08:56:49;;;;;;;7.47;5.32;;;2.70;99.90;;;;;;4996359;28;20552;-76
2023/12/01 08:59:17;;;;;;;10.25;5.57;;;2.70;99.90;;;;;;4996691;28;20024;-77
2023/12/01 09:01:43;;;;;;;7.90;5.55;;;3.30;99.90;;;;;;4979854;28;20038;-77
2023/12/01 09:04:09;;;;;;;10.75;6.55;;;4.70;99.90;;;;;;4980166;28;20038;-78
2023/12/01 09:06:36;;;;;;;15.77;7.50;;;6.10;99.90;;;;;;4979020;28;20030;-76
2023/12/01 09:09:02;;;;;;;11.93;7.82;;;6.60;99.90;;;;;;4979019;28;20030;-75
2023/12/01 09:11:29;;;;;;;15.27;7.40;;;5.10;99.90;;;;;;4979036;28;20026;-75
2023/12/01 09:13:54;;;;;;;9.82;6.18;;;4.50;99.90;;;;;;4996187;28;20074;-75
2023/12/01 09:16:23;;;;;;;7.30;6.30;;;4.00;99.90;;;;;;4995961;28;20436;-76
2023/12/01 09:18:49;;;;;;;11.68;7.22;;;3.10;99.90;;;;;;4996271;28;20026;-76
2023/12/01 09:21:14;;;;;;;7.30;5.10;;;3.40;99.90;;;;;;4995893;28;20090;-77
2023/12/01 09:23:41;;;;;;;10.43;5.38;;;3.20;99.90;;;;;;4978768;28;20112;-75
2023/12/01 09:26:06;;;;;;;10.70;4.43;;;3.00;99.90;;;;;;4995800;28;20418;-76
2023/12/01 09:28:35;;;;;;;11.02;4.82;;;2.80;99.90;;;;;;4996697;28;20026;-75
2023/12/01 09:31:02;;;;;;;10.48;5.70;;;2.70;99.90;;;;;;4996368;28;20054;-78
2023/12/01 09:33:28;;;;;;;5.15;4.40;;;3.80;99.90;;;;;;4995914;28;20492;-76
2023/12/01 09:35:53;;;;;;;8.52;4.80;;;3.80;99.90;;;;;;4994781;28;20109;-75
2023/12/01 09:38:19;;;;;;;7.80;4.70;;;3.90;99.90;;;;;;4995856;28;20055;-77
2023/12/01 09:40:45;;;;;;;8.90;5.68;;;3.00;99.90;;;;;;4995623;28;20031;-75
2023/12/01 09:43:17;;;;;;;10.75;5.45;;;2.90;99.90;;;;;;4995672;28;20102;-75
2023/12/01 09:45:43;;;;;;;7.22;4.85;;;2.80;99.90;;;;;;4995715;28;20089;-75
2023/12/01 09:48:10;;;;;;;7.68;4.38;;;2.80;99.90;;;;;;4978122;28;20487;-75
2023/12/01 09:50:36;;;;;;;7.72;5.13;;;2.70;99.90;;;;;;4967283;28;20078;-77
2023/12/01 09:53:02;;;;;;;8.95;5.60;;;2.80;99.90;;;;;;4976071;28;20023;-77
2023/12/01 09:55:29;;;;;;;15.48;5.10;;;2.70;99.90;;;;;;4976422;28;20022;-76
2023/12/01 09:57:56;;;;;;;12.15;5.20;;;2.60;99.90;;;;;;4977532;28;20023;-79
2023/12/01 10:00:22;;;;;;;9.82;5.50;;;2.70;99.90;;;;;;4976667;28;20023;-78
2023/12/01 10:02:48;;;;;;;9.57;5.97;;;3.20;99.90;;;;;;4977241;28;20050;-75
2023/12/01 10:05:18;;;;;;;6.00;4.72;;;2.90;99.90;;;;;;4980306;28;20026;-77
2023/12/01 10:07:44;;;;;;;9.32;5.78;;;2.70;99.90;;;;;;4977959;28;20022;-78
2023/12/01 10:10:23;;;;;;;11.18;5.78;;;3.60;99.90;;;;;;4960552;28;20022;-77
2023/12/01 10:13:04;;;;;;;8.35;4.82;;;2.70;99.90;;;;;;4959622;28;20022;-76
2023/12/01 10:15:31;;;;;;;7.43;4.65;;;2.60;99.90;;;;;;4959071;28;20073;-76
2023/12/01 10:18:17;;;;;;;9.15;5.22;;;2.60;99.90;;;;;;4976834;28;20082;-76
2023/12/01 10:21:03;;;;;;;6.65;4.88;;;2.60;99.90;;;;;;4959502;28;20037;-76
2023/12/01 10:23:30;;;;;;;9.82;4.78;;;2.70;99.90;;;;;;4976717;28;20031;-75
2023/12/01 10:25:56;;;;;;;6.18;4.25;;;2.60;99.90;;;;;;4976612;28;20094;-76
2023/12/01 10:28:36;;;;;;;10.45;5.90;;;2.70;99.90;;;;;;4976567;28;20380;-76
2023/12/01 10:31:03;;;;;;;8.80;5.18;;;2.70;99.90;;;;;;4959571;28;20027;-77
2023/12/01 10:33:29;;;;;;;6.20;4.45;;;2.70;99.90;;;;;;4977704;28;20026;-77
2023/12/01 10:36:08;;;;;;;8.20;4.97;;;2.70;99.90;;;;;;4977045;28;20058;-77
2023/12/01 10:38:36;;;;;;;7.97;4.60;;;2.70;99.90;;;;;;4977117;28;20107;-76
2023/12/01 10:41:03;;;;;;;5.40;3.60;;;2.70;99.90;;;;;;4959406;28;20027;-76
2023/12/01 10:43:29;;;;;;;8.35;4.75;;;2.80;99.90;;;;;;4976194;28;20433;-78
2023/12/01 10:46:00;;;;;;;12.85;6.45;;;2.40;99.90;;;;;;4975919;28;20086;-77
2023/12/01 10:48:29;;;;;;;8.93;5.35;;;2.80;99.90;;;;;;4975362;28;20031;-76
2023/12/01 10:50:54;;;;;;;8.68;5.78;;;4.60;99.90;;;;;;4975714;28;20081;-76
2023/12/01 10:53:24;;;;;;;9.38;4.93;;;4.00;99.90;;;;;;4958320;28;20030;-76
2023/12/01 10:55:50;;;;;;;8.13;5.20;;;2.90;99.90;;;;;;4957795;28;20113;-75
2023/12/01 10:58:24;;;;;;;8.55;5.07;;;2.60;99.90;;;;;;4958452;28;20023;-76
2023/12/01 11:00:51;;;;;;;11.75;5.40;;;2.70;99.90;;;;;;4958160;28;20023;-76
2023/12/01 11:03:25;;;;;;;9.85;5.68;;;2.70;99.90;;;;;;4975373;28;20054;-76
2023/12/01 11:05:55;;;;;;;9.02;5.90;;;2.90;99.90;;;;;;4974885;28;20046;-76
2023/12/01 11:08:45;;;;;;;18.83;14.13;;;2.60;99.90;;;;;;4977797;23;20515;-73
2023/12/01 11:11:28;;;;;;;12.18;6.90;;;2.90;99.90;;;;;;5013582;28;20406;-73
2023/12/01 11:14:17;;;;;;;8.65;6.03;;;2.80;99.90;;;;;;5027628;28;20022;-76
2023/12/01 11:16:43;;;;;;;9.00;5.80;;;3.10;99.90;;;;;;5007032;28;20083;-73
2023/12/01 11:19:11;;;;;;;11.32;6.78;;;2.80;99.90;;;;;;4995877;28;20026;-74
2023/12/01 11:21:40;;;;;;;8.23;6.07;;;2.60;99.90;;;;;;4993259;28;20030;-76
2023/12/01 11:24:24;;;;;;;8.93;5.53;;;2.70;99.90;;;;;;4993152;28;20055;-73
2023/12/01 11:26:52;;;;;;;9.40;5.43;;;2.80;99.90;;;;;;4993082;28;20018;-75
2023/12/01 11:29:34;;;;;;;12.70;5.45;;;2.80;99.90;;;;;;4993040;28;20018;-75
2023/12/01 11:32:00;;;;;;;11.52;6.80;;;2.80;99.90;;;;;;4975426;28;20126;-75
2023/12/01 11:34:26;;;;;;;9.75;5.88;;;2.80;99.90;;;;;;4993198;28;20109;-75
2023/12/01 11:36:56;;;;;;;10.60;5.38;;;2.90;99.90;;;;;;4975516;28;20123;-75
2023/12/01 11:39:26;;;;;;;8.32;5.65;;;2.80;99.90;;;;;;4993069;28;20019;-74
2023/12/01 11:42:12;;;;;;;9.10;5.45;;;2.90;99.90;;;;;;4993079;28;20018;-75
2023/12/01 11:44:40;;;;;;;8.68;5.40;;;2.80;99.90;;;;;;4975739;28;20616;-75
2023/12/01 11:47:08;;;;;;;11.60;5.80;;;2.80;99.90;;;;;;4992596;28;20022;-75
2023/12/01 11:49:38;;;;;;;9.18;6.30;;;2.80;99.90;;;;;;4992897;28;20106;-75
2023/12/01 11:52:05;;;;;;;12.18;8.70;;;2.90;99.90;;;;;;4993021;28;20026;-75
2023/12/01 11:54:36;;;;;;;14.55;8.73;;;3.00;99.90;;;;;;4993011;28;20054;-75
2023/12/01 11:57:05;;;;;;;8.98;5.68;;;3.00;99.90;;;;;;4975228;28;20034;-75
2023/12/01 11:59:32;;;;;;;13.50;8.07;;;3.10;99.90;;;;;;4992842;28;20026;-75
2023/12/01 12:01:57;;;;;;;17.85;12.25;;;3.00;99.90;;;;;;4975372;28;20030;-75
2023/12/01 12:04:23;;;;;;;20.98;15.60;;;2.90;99.90;;;;;;4992530;28;20388;-75
2023/12/01 12:06:50;;;;;;;14.23;8.95;;;3.00;99.90;;;;;;4991163;28;20029;-75
2023/12/01 12:09:19;;;;;;;11.85;6.82;;;2.90;99.90;;;;;;4992562;28;20121;-75
2023/12/01 12:11:48;;;;;;;12.05;8.25;;;3.00;99.90;;;;;;4975265;28;20113;-75
2023/12/01 12:14:15;;;;;;;9.32;6.38;;;3.10;99.90;;;;;;4992721;28;20029;-75
2023/12/01 12:16:41;;;;;;;7.10;5.03;;;3.00;99.90;;;;;;4992053;28;20030;-75
2023/12/01 12:19:07;;;;;;;6.53;4.07;;;3.00;99.90;;;;;;4992549;28;20026;-75
2023/12/01 12:21:35;;;;;;;6.90;4.18;;;2.90;99.90;;;;;;4992504;28;20026;-75
2023/12/01 12:24:00;;;;;;;10.68;7.20;;;2.90;99.90;;;;;;4992601;28;20035;-75
2023/12/01 12:26:28;;;;;;;9.98;4.85;;;2.90;99.90;;;;;;4992328;28;20034;-75
2023/12/01 12:28:59;;;;;;;6.25;3.20;;;2.90;99.90;;;;;;4974909;28;20097;-74
2023/12/01 12:31:29;;;;;;;19.92;4.22;;;2.80;99.90;;;;;;4992514;28;20034;-75
2023/12/01 12:33:56;;;;;;;5.82;4.00;;;2.80;99.90;;;;;;4992467;28;20036;-74
2023/12/01 12:36:26;;;;;;;5.07;3.72;;;2.70;99.90;;;;;;4992216;28;20034;-75
2023/12/01 12:38:52;;;;;;;9.48;5.10;;;2.80;99.90;;;;;;4975243;28;20436;-75
2023/12/01 12:41:31;;;;;;;24.75;11.50;;;2.70;99.90;;;;;;4992319;28;20030;-75
2023/12/01 12:44:01;;;;;;;12.40;5.72;;;2.80;99.90;;;;;;4992331;28;20029;-75
2023/12/01 12:46:29;;;;;;;6.65;4.10;;;2.80;99.90;;;;;;4992040;28;20026;-75